sensor_id;sensor_type;location;lat;lon;timestamp;P1;durP1;ratioP1;P2;durP2;ratioP2
13345;SDS011;6742;48.036;15.780;2022-09-09T09:37:57;31.00;;;29.80;;
13345;SDS011;6742;48.036;15.780;2022-09-09T09:45:31;28.57;;;27.37;;
13345;SDS011;6742;48.036;15.780;2022-09-09T09:48:10;25.30;;;24.33;;
13345;SDS011;6742;48.036;15.780;2022-09-09T09:50:40;29.27;;;28.10;;
13345;SDS011;6742;48.036;15.780;2022-09-09T10:00:49;20.20;;;19.40;;
13345;SDS011;6742;48.036;15.780;2022-09-09T10:08:17;18.20;;;17.40;;
13345;SDS011;6742;48.036;15.780;2022-09-09T10:10:51;19.03;;;18.33;;
13345;SDS011;6742;48.036;15.780;2022-09-09T10:13:36;16.00;;;15.30;;
13345;SDS011;6742;48.036;15.780;2022-09-09T10:16:17;13.97;;;13.27;;
13345;SDS011;6742;48.036;15.780;2022-09-09T10:18:59;15.23;;;14.53;;
13345;SDS011;6742;48.036;15.780;2022-09-09T10:21:37;16.77;;;16.07;;
13345;SDS011;6742;48.036;15.780;2022-09-09T10:27:22;14.00;;;13.30;;
13345;SDS011;6742;48.036;15.780;2022-09-09T10:29:59;11.37;;;10.83;;
13345;SDS011;6742;48.036;15.780;2022-09-09T10:32:39;12.67;;;12.07;;
13345;SDS011;6742;48.036;15.780;2022-09-09T10:35:12;11.40;;;10.90;;
13345;SDS011;6742;48.036;15.780;2022-09-09T10:38:10;12.10;;;11.57;;
13345;SDS011;6742;48.036;15.780;2022-09-09T10:40:44;14.70;;;14.10;;
13345;SDS011;6742;48.036;15.780;2022-09-09T10:46:45;13.23;;;12.73;;
13345;SDS011;6742;48.036;15.780;2022-09-09T10:49:33;13.93;;;13.33;;
13345;SDS011;6742;48.036;15.780;2022-09-09T10:52:15;15.07;;;14.27;;
13345;SDS011;6742;48.036;15.780;2022-09-09T10:54:51;14.10;;;13.60;;
13345;SDS011;6742;48.036;15.780;2022-09-09T10:57:25;11.67;;;11.17;;
13345;SDS011;6742;48.036;15.780;2022-09-09T10:59:58;14.07;;;13.47;;
13345;SDS011;6742;48.036;15.780;2022-09-09T11:02:33;11.60;;;10.90;;
13345;SDS011;6742;48.036;15.780;2022-09-09T11:05:03;12.27;;;11.67;;
13345;SDS011;6742;48.036;15.780;2022-09-09T11:07:35;12.97;;;12.37;;
13345;SDS011;6742;48.036;15.780;2022-09-09T11:10:14;12.33;;;11.83;;
13345;SDS011;6742;48.036;15.780;2022-09-09T11:12:48;12.03;;;11.53;;
13345;SDS011;6742;48.036;15.780;2022-09-09T11:15:20;10.30;;;9.90;;
13345;SDS011;6742;48.036;15.780;2022-09-09T11:17:52;12.97;;;12.47;;
13345;SDS011;6742;48.036;15.780;2022-09-09T11:20:23;11.70;;;11.10;;
13345;SDS011;6742;48.036;15.780;2022-09-09T11:22:52;11.73;;;11.23;;
13345;SDS011;6742;48.036;15.780;2022-09-09T11:25:26;10.77;;;10.37;;
13345;SDS011;6742;48.036;15.780;2022-09-09T11:28:05;13.43;;;12.93;;
13345;SDS011;6742;48.036;15.780;2022-09-09T11:30:49;14.90;;;14.27;;
13345;SDS011;6742;48.036;15.780;2022-09-09T11:38:57;17.53;;;16.83;;
13345;SDS011;6742;48.036;15.780;2022-09-09T11:41:33;21.17;;;20.20;;
13345;SDS011;6742;48.036;15.780;2022-09-09T11:44:08;23.27;;;22.27;;
13345;SDS011;6742;48.036;15.780;2022-09-09T11:46:37;20.27;;;19.47;;
13345;SDS011;6742;48.036;15.780;2022-09-09T11:49:06;22.90;;;22.00;;
13345;SDS011;6742;48.036;15.780;2022-09-09T11:51:53;25.00;;;23.80;;
13345;SDS011;6742;48.036;15.780;2022-09-09T11:54:28;25.30;;;24.30;;
13345;SDS011;6742;48.036;15.780;2022-09-09T11:56:57;22.37;;;21.37;;
13345;SDS011;6742;48.036;15.780;2022-09-09T11:59:25;26.97;;;25.87;;
13345;SDS011;6742;48.036;15.780;2022-09-09T12:01:56;31.70;;;30.40;;
13345;SDS011;6742;48.036;15.780;2022-09-09T12:04:27;31.00;;;29.73;;
13345;SDS011;6742;48.036;15.780;2022-09-09T12:06:58;27.77;;;26.67;;
13345;SDS011;6742;48.036;15.780;2022-09-09T12:09:39;29.60;;;28.40;;
13345;SDS011;6742;48.036;15.780;2022-09-09T12:12:25;29.03;;;27.73;;
13345;SDS011;6742;48.036;15.780;2022-09-09T12:17:53;32.07;;;30.77;;
13345;SDS011;6742;48.036;15.780;2022-09-09T12:20:22;33.03;;;31.63;;
13345;SDS011;6742;48.036;15.780;2022-09-09T12:23:02;3.67;;;3.47;;
13345;SDS011;6742;48.036;15.780;2022-09-09T12:25:55;4.57;;;3.67;;
13345;SDS011;6742;48.036;15.780;2022-09-09T12:28:45;3.97;;;3.63;;
13345;SDS011;6742;48.036;15.780;2022-09-09T12:31:20;4.47;;;4.07;;
13345;SDS011;6742;48.036;15.780;2022-09-09T12:33:51;4.90;;;3.83;;
13345;SDS011;6742;48.036;15.780;2022-09-09T12:36:18;6.13;;;4.80;;
13345;SDS011;6742;48.036;15.780;2022-09-09T12:38:48;7.13;;;3.80;;
13345;SDS011;6742;48.036;15.780;2022-09-09T12:41:21;4.03;;;3.67;;
13345;SDS011;6742;48.036;15.780;2022-09-09T12:43:49;6.57;;;3.93;;
13345;SDS011;6742;48.036;15.780;2022-09-09T12:46:26;5.83;;;4.73;;
13345;SDS011;6742;48.036;15.780;2022-09-09T12:48:58;4.07;;;3.70;;
13345;SDS011;6742;48.036;15.780;2022-09-09T12:51:29;7.57;;;4.93;;
13345;SDS011;6742;48.036;15.780;2022-09-09T12:56:35;5.90;;;5.40;;
13345;SDS011;6742;48.036;15.780;2022-09-09T12:59:05;5.03;;;4.50;;
13345;SDS011;6742;48.036;15.780;2022-09-09T13:14:29;2.97;;;2.77;;
13345;SDS011;6742;48.036;15.780;2022-09-09T13:17:03;3.33;;;3.07;;
13345;SDS011;6742;48.036;15.780;2022-09-09T13:19:32;3.27;;;3.00;;
13345;SDS011;6742;48.036;15.780;2022-09-09T13:22:11;4.17;;;2.90;;
13345;SDS011;6742;48.036;15.780;2022-09-09T13:24:39;3.10;;;2.90;;
13345;SDS011;6742;48.036;15.780;2022-09-09T13:27:23;2.80;;;2.60;;
13345;SDS011;6742;48.036;15.780;2022-09-09T13:29:55;4.33;;;2.30;;
13345;SDS011;6742;48.036;15.780;2022-09-09T13:32:22;4.37;;;3.03;;
13345;SDS011;6742;48.036;15.780;2022-09-09T13:34:52;2.77;;;2.57;;
13345;SDS011;6742;48.036;15.780;2022-09-09T13:37:22;2.83;;;2.20;;
13345;SDS011;6742;48.036;15.780;2022-09-09T13:39:53;4.70;;;2.37;;
13345;SDS011;6742;48.036;15.780;2022-09-09T13:42:24;2.60;;;2.40;;
13345;SDS011;6742;48.036;15.780;2022-09-09T13:44:54;2.60;;;2.40;;
13345;SDS011;6742;48.036;15.780;2022-09-09T13:47:26;2.30;;;2.13;;
13345;SDS011;6742;48.036;15.780;2022-09-09T13:49:56;2.63;;;2.40;;
13345;SDS011;6742;48.036;15.780;2022-09-09T13:52:23;2.80;;;2.60;;
13345;SDS011;6742;48.036;15.780;2022-09-09T13:54:52;2.17;;;2.07;;
13345;SDS011;6742;48.036;15.780;2022-09-09T13:57:21;2.60;;;2.40;;
13345;SDS011;6742;48.036;15.780;2022-09-09T13:59:50;2.37;;;2.17;;
13345;SDS011;6742;48.036;15.780;2022-09-09T14:02:21;2.47;;;2.33;;
13345;SDS011;6742;48.036;15.780;2022-09-09T14:04:48;2.23;;;2.13;;
13345;SDS011;6742;48.036;15.780;2022-09-09T14:07:20;2.87;;;2.60;;
13345;SDS011;6742;48.036;15.780;2022-09-09T14:09:48;4.37;;;2.70;;
13345;SDS011;6742;48.036;15.780;2022-09-09T14:12:19;3.33;;;2.70;;
13345;SDS011;6742;48.036;15.780;2022-09-09T14:14:46;2.20;;;2.10;;
13345;SDS011;6742;48.036;15.780;2022-09-09T14:17:14;2.57;;;2.47;;
13345;SDS011;6742;48.036;15.780;2022-09-09T14:19:43;3.40;;;2.73;;
13345;SDS011;6742;48.036;15.780;2022-09-09T14:22:11;2.63;;;2.53;;
13345;SDS011;6742;48.036;15.780;2022-09-09T14:24:38;2.90;;;2.07;;
13345;SDS011;6742;48.036;15.780;2022-09-09T14:27:05;2.53;;;2.30;;
13345;SDS011;6742;48.036;15.780;2022-09-09T14:29:32;2.43;;;2.23;;
13345;SDS011;6742;48.036;15.780;2022-09-09T14:31:59;2.30;;;2.10;;
13345;SDS011;6742;48.036;15.780;2022-09-09T14:34:27;2.47;;;2.37;;
13345;SDS011;6742;48.036;15.780;2022-09-09T14:36:55;2.67;;;2.47;;
13345;SDS011;6742;48.036;15.780;2022-09-09T14:39:22;2.30;;;2.20;;
13345;SDS011;6742;48.036;15.780;2022-09-09T14:41:49;2.23;;;2.03;;
13345;SDS011;6742;48.036;15.780;2022-09-09T14:44:16;2.30;;;2.10;;
13345;SDS011;6742;48.036;15.780;2022-09-09T14:46:43;2.10;;;2.00;;
13345;SDS011;6742;48.036;15.780;2022-09-09T14:49:10;2.30;;;2.20;;
13345;SDS011;6742;48.036;15.780;2022-09-09T14:51:37;3.10;;;2.83;;
13345;SDS011;6742;48.036;15.780;2022-09-09T14:54:09;3.20;;;3.00;;
13345;SDS011;6742;48.036;15.780;2022-09-09T14:56:36;2.40;;;2.30;;
13345;SDS011;6742;48.036;15.780;2022-09-09T14:59:03;2.63;;;2.43;;
13345;SDS011;6742;48.036;15.780;2022-09-09T15:01:33;2.57;;;2.37;;
13345;SDS011;6742;48.036;15.780;2022-09-09T15:04:01;2.53;;;2.33;;
13345;SDS011;6742;48.036;15.780;2022-09-09T15:06:30;2.73;;;2.53;;
13345;SDS011;6742;48.036;15.780;2022-09-09T15:08:59;2.60;;;2.40;;
13345;SDS011;6742;48.036;15.780;2022-09-09T15:11:28;2.70;;;2.50;;
13345;SDS011;6742;48.036;15.780;2022-09-09T15:13:57;2.50;;;2.30;;
13345;SDS011;6742;48.036;15.780;2022-09-09T15:16:25;2.70;;;2.50;;
13345;SDS011;6742;48.036;15.780;2022-09-09T15:18:53;3.10;;;2.60;;
13345;SDS011;6742;48.036;15.780;2022-09-09T15:21:23;2.47;;;2.27;;
13345;SDS011;6742;48.036;15.780;2022-09-09T15:23:54;3.67;;;3.30;;
13345;SDS011;6742;48.036;15.780;2022-09-09T15:26:21;2.60;;;2.40;;
13345;SDS011;6742;48.036;15.780;2022-09-09T15:28:49;2.60;;;2.40;;
13345;SDS011;6742;48.036;15.780;2022-09-09T15:31:17;4.17;;;2.53;;
13345;SDS011;6742;48.036;15.780;2022-09-09T15:33:46;2.30;;;2.10;;
13345;SDS011;6742;48.036;15.780;2022-09-09T15:36:15;2.90;;;2.13;;
13345;SDS011;6742;48.036;15.780;2022-09-09T15:38:46;2.20;;;2.00;;
13345;SDS011;6742;48.036;15.780;2022-09-09T15:41:13;2.80;;;2.57;;
13345;SDS011;6742;48.036;15.780;2022-09-09T15:43:42;2.57;;;2.37;;
13345;SDS011;6742;48.036;15.780;2022-09-09T15:46:25;3.43;;;3.23;;
13345;SDS011;6742;48.036;15.780;2022-09-09T15:48:55;3.93;;;3.67;;
13345;SDS011;6742;48.036;15.780;2022-09-09T15:51:23;3.67;;;3.37;;
13345;SDS011;6742;48.036;15.780;2022-09-09T15:53:53;3.60;;;2.80;;
13345;SDS011;6742;48.036;15.780;2022-09-09T15:56:21;3.33;;;3.00;;
13345;SDS011;6742;48.036;15.780;2022-09-09T15:58:48;3.83;;;3.63;;
13345;SDS011;6742;48.036;15.780;2022-09-09T16:01:17;4.57;;;4.27;;
13345;SDS011;6742;48.036;15.780;2022-09-09T16:03:46;6.50;;;6.10;;
13345;SDS011;6742;48.036;15.780;2022-09-09T16:06:15;5.57;;;5.27;;
13345;SDS011;6742;48.036;15.780;2022-09-09T16:08:44;7.17;;;6.77;;
13345;SDS011;6742;48.036;15.780;2022-09-09T16:11:14;6.77;;;6.43;;
13345;SDS011;6742;48.036;15.780;2022-09-09T16:13:45;7.07;;;6.63;;
13345;SDS011;6742;48.036;15.780;2022-09-09T16:16:14;9.77;;;8.87;;
13345;SDS011;6742;48.036;15.780;2022-09-09T16:18:42;9.37;;;8.77;;
13345;SDS011;6742;48.036;15.780;2022-09-09T16:21:13;8.70;;;8.20;;
13345;SDS011;6742;48.036;15.780;2022-09-09T16:23:41;10.27;;;9.37;;
13345;SDS011;6742;48.036;15.780;2022-09-09T16:26:10;6.20;;;5.70;;
13345;SDS011;6742;48.036;15.780;2022-09-09T16:38:57;14.23;;;13.50;;
13345;SDS011;6742;48.036;15.780;2022-09-09T16:51:39;15.10;;;14.37;;
13345;SDS011;6742;48.036;15.780;2022-09-09T16:54:16;20.87;;;20.00;;
13345;SDS011;6742;48.036;15.780;2022-09-09T17:07:01;13.37;;;12.67;;
13345;SDS011;6742;48.036;15.780;2022-09-09T17:17:16;9.10;;;8.50;;
13345;SDS011;6742;48.036;15.780;2022-09-09T17:19:43;11.97;;;11.33;;
13345;SDS011;6742;48.036;15.780;2022-09-09T17:45:18;24.40;;;23.40;;
13345;SDS011;6742;48.036;15.780;2022-09-09T17:50:21;24.37;;;23.40;;
13345;SDS011;6742;48.036;15.780;2022-09-09T18:05:45;42.80;;;40.93;;
13345;SDS011;6742;48.036;15.780;2022-09-09T18:08:11;44.37;;;42.60;;
13345;SDS011;6742;48.036;15.780;2022-09-09T18:18:10;26.63;;;25.50;;
13345;SDS011;6742;48.036;15.780;2022-09-09T18:20:38;39.53;;;37.87;;
13345;SDS011;6742;48.036;15.780;2022-09-09T18:23:06;33.00;;;31.63;;
13345;SDS011;6742;48.036;15.780;2022-09-09T18:25:36;39.47;;;37.87;;
13345;SDS011;6742;48.036;15.780;2022-09-09T18:28:07;37.07;;;35.50;;
13345;SDS011;6742;48.036;15.780;2022-09-09T18:30:37;36.17;;;34.73;;
13345;SDS011;6742;48.036;15.780;2022-09-09T18:33:05;30.83;;;29.47;;
13345;SDS011;6742;48.036;15.780;2022-09-09T18:38:00;36.00;;;34.43;;
13345;SDS011;6742;48.036;15.780;2022-09-09T18:40:30;43.77;;;41.97;;
13345;SDS011;6742;48.036;15.780;2022-09-09T18:42:57;44.57;;;42.87;;
13345;SDS011;6742;48.036;15.780;2022-09-09T18:45:26;34.27;;;32.90;;
13345;SDS011;6742;48.036;15.780;2022-09-09T18:47:53;43.10;;;41.37;;
13345;SDS011;6742;48.036;15.780;2022-09-09T18:50:21;48.93;;;47.03;;
13345;SDS011;6742;48.036;15.780;2022-09-09T18:52:48;51.03;;;49.07;;
13345;SDS011;6742;48.036;15.780;2022-09-09T18:57:46;44.30;;;42.57;;
13345;SDS011;6742;48.036;15.780;2022-09-09T19:02:49;57.53;;;55.23;;
13345;SDS011;6742;48.036;15.780;2022-09-09T19:05:17;42.20;;;40.50;;
13345;SDS011;6742;48.036;15.780;2022-09-09T19:10:12;50.53;;;48.53;;
13345;SDS011;6742;48.036;15.780;2022-09-09T19:17:43;55.37;;;53.07;;
13345;SDS011;6742;48.036;15.780;2022-09-09T19:20:10;46.70;;;44.77;;
13345;SDS011;6742;48.036;15.780;2022-09-09T19:22:37;39.17;;;37.60;;
13345;SDS011;6742;48.036;15.780;2022-09-09T19:25:05;53.57;;;51.50;;
13345;SDS011;6742;48.036;15.780;2022-09-09T19:27:32;54.30;;;52.10;;
13345;SDS011;6742;48.036;15.780;2022-09-09T19:29:59;47.53;;;45.67;;
13345;SDS011;6742;48.036;15.780;2022-09-09T19:32:26;51.23;;;49.20;;
13345;SDS011;6742;48.036;15.780;2022-09-09T19:34:54;45.83;;;43.90;;
13345;SDS011;6742;48.036;15.780;2022-09-09T19:39:51;74.80;;;71.93;;
13345;SDS011;6742;48.036;15.780;2022-09-09T19:42:18;44.20;;;42.30;;
13345;SDS011;6742;48.036;15.780;2022-09-09T19:44:45;59.67;;;56.97;;
13345;SDS011;6742;48.036;15.780;2022-09-09T19:47:14;48.43;;;46.53;;
13345;SDS011;6742;48.036;15.780;2022-09-09T19:52:10;46.60;;;44.73;;
13345;SDS011;6742;48.036;15.780;2022-09-09T19:54:37;54.77;;;52.27;;
13345;SDS011;6742;48.036;15.780;2022-09-09T19:57:04;68.33;;;65.67;;
13345;SDS011;6742;48.036;15.780;2022-09-09T19:59:31;53.67;;;51.57;;
13345;SDS011;6742;48.036;15.780;2022-09-09T20:01:58;67.33;;;64.53;;
13345;SDS011;6742;48.036;15.780;2022-09-09T20:04:25;67.37;;;64.77;;
13345;SDS011;6742;48.036;15.780;2022-09-09T20:06:52;58.23;;;55.97;;
13345;SDS011;6742;48.036;15.780;2022-09-09T20:09:20;80.63;;;77.47;;
13345;SDS011;6742;48.036;15.780;2022-09-09T20:11:49;60.73;;;58.33;;
13345;SDS011;6742;48.036;15.780;2022-09-09T20:14:17;49.00;;;47.00;;
13345;SDS011;6742;48.036;15.780;2022-09-09T20:16:44;62.97;;;60.47;;
13345;SDS011;6742;48.036;15.780;2022-09-09T20:19:12;49.27;;;47.30;;
13345;SDS011;6742;48.036;15.780;2022-09-09T20:21:41;71.60;;;68.70;;
13345;SDS011;6742;48.036;15.780;2022-09-09T20:24:11;61.13;;;58.63;;
13345;SDS011;6742;48.036;15.780;2022-09-09T20:26:43;61.90;;;59.40;;
13345;SDS011;6742;48.036;15.780;2022-09-09T20:29:11;62.87;;;60.37;;
13345;SDS011;6742;48.036;15.780;2022-09-09T20:31:40;58.33;;;56.03;;
13345;SDS011;6742;48.036;15.780;2022-09-09T20:34:09;70.23;;;67.40;;
13345;SDS011;6742;48.036;15.780;2022-09-09T20:36:37;60.43;;;57.77;;
13345;SDS011;6742;48.036;15.780;2022-09-09T20:39:06;66.67;;;64.07;;
13345;SDS011;6742;48.036;15.780;2022-09-09T20:41:35;64.90;;;62.37;;
13345;SDS011;6742;48.036;15.780;2022-09-09T20:44:05;67.73;;;65.03;;
13345;SDS011;6742;48.036;15.780;2022-09-09T20:46:39;68.27;;;65.47;;
13345;SDS011;6742;48.036;15.780;2022-09-09T20:49:08;70.90;;;68.10;;
13345;SDS011;6742;48.036;15.780;2022-09-09T20:51:36;73.07;;;70.23;;
13345;SDS011;6742;48.036;15.780;2022-09-09T20:54:04;72.87;;;69.87;;
13345;SDS011;6742;48.036;15.780;2022-09-09T20:56:33;69.87;;;67.17;;
13345;SDS011;6742;48.036;15.780;2022-09-09T20:59:02;74.37;;;71.20;;
13345;SDS011;6742;48.036;15.780;2022-09-09T21:01:31;81.87;;;78.70;;
13345;SDS011;6742;48.036;15.780;2022-09-09T21:03:58;77.40;;;74.20;;
13345;SDS011;6742;48.036;15.780;2022-09-09T21:06:25;83.33;;;80.07;;
13345;SDS011;6742;48.036;15.780;2022-09-09T21:08:52;74.50;;;71.63;;
13345;SDS011;6742;48.036;15.780;2022-09-09T21:11:19;66.97;;;64.37;;
13345;SDS011;6742;48.036;15.780;2022-09-09T21:13:46;64.40;;;61.80;;
13345;SDS011;6742;48.036;15.780;2022-09-09T21:16:14;89.23;;;85.83;;
13345;SDS011;6742;48.036;15.780;2022-09-09T21:18:44;83.77;;;80.57;;
13345;SDS011;6742;48.036;15.780;2022-09-09T21:21:12;74.23;;;71.30;;
13345;SDS011;6742;48.036;15.780;2022-09-09T21:23:39;65.73;;;63.17;;
13345;SDS011;6742;48.036;15.780;2022-09-09T21:26:06;73.67;;;70.73;;
13345;SDS011;6742;48.036;15.780;2022-09-09T21:28:34;90.57;;;86.97;;
13345;SDS011;6742;48.036;15.780;2022-09-09T21:31:02;79.27;;;76.13;;
13345;SDS011;6742;48.036;15.780;2022-09-09T21:33:29;85.93;;;82.60;;
13345;SDS011;6742;48.036;15.780;2022-09-09T21:36:01;96.60;;;92.80;;
13345;SDS011;6742;48.036;15.780;2022-09-09T21:38:30;81.57;;;78.40;;
13345;SDS011;6742;48.036;15.780;2022-09-09T21:41:00;87.37;;;83.87;;
13345;SDS011;6742;48.036;15.780;2022-09-09T21:43:28;114.97;;;110.30;;
13345;SDS011;6742;48.036;15.780;2022-09-09T21:45:58;83.83;;;80.50;;
13345;SDS011;6742;48.036;15.780;2022-09-09T21:48:28;82.33;;;79.13;;
13345;SDS011;6742;48.036;15.780;2022-09-09T21:51:00;108.90;;;104.70;;
13345;SDS011;6742;48.036;15.780;2022-09-09T21:53:30;89.87;;;86.37;;
13345;SDS011;6742;48.036;15.780;2022-09-09T21:55:59;96.17;;;92.50;;
13345;SDS011;6742;48.036;15.780;2022-09-09T21:58:27;93.17;;;89.47;;
13345;SDS011;6742;48.036;15.780;2022-09-09T22:00:54;91.40;;;87.70;;
13345;SDS011;6742;48.036;15.780;2022-09-09T22:03:21;97.23;;;93.27;;
13345;SDS011;6742;48.036;15.780;2022-09-09T22:05:49;98.00;;;94.20;;
13345;SDS011;6742;48.036;15.780;2022-09-09T22:08:17;114.73;;;110.30;;
13345;SDS011;6742;48.036;15.780;2022-09-09T22:10:45;107.67;;;103.50;;
13345;SDS011;6742;48.036;15.780;2022-09-09T22:13:13;100.50;;;96.60;;
13345;SDS011;6742;48.036;15.780;2022-09-09T22:15:41;92.47;;;88.90;;
13345;SDS011;6742;48.036;15.780;2022-09-09T22:18:10;102.00;;;98.10;;
13345;SDS011;6742;48.036;15.780;2022-09-09T22:20:40;117.43;;;112.93;;
13345;SDS011;6742;48.036;15.780;2022-09-09T22:23:11;93.63;;;89.97;;
13345;SDS011;6742;48.036;15.780;2022-09-09T22:25:40;118.23;;;113.50;;
13345;SDS011;6742;48.036;15.780;2022-09-09T22:28:08;100.83;;;96.77;;
13345;SDS011;6742;48.036;15.780;2022-09-09T22:30:38;128.03;;;122.90;;
13345;SDS011;6742;48.036;15.780;2022-09-09T22:33:05;105.07;;;100.80;;
13345;SDS011;6742;48.036;15.780;2022-09-09T22:35:37;113.60;;;109.30;;
13345;SDS011;6742;48.036;15.780;2022-09-09T22:38:06;118.73;;;114.13;;
13345;SDS011;6742;48.036;15.780;2022-09-09T22:40:34;103.27;;;99.27;;
13345;SDS011;6742;48.036;15.780;2022-09-09T22:43:03;123.60;;;118.87;;
13345;SDS011;6742;48.036;15.780;2022-09-09T22:45:32;126.57;;;121.57;;
13345;SDS011;6742;48.036;15.780;2022-09-09T22:47:59;126.23;;;121.40;;
13345;SDS011;6742;48.036;15.780;2022-09-09T22:50:26;134.73;;;129.63;;
13345;SDS011;6742;48.036;15.780;2022-09-09T22:52:53;122.70;;;118.00;;
13345;SDS011;6742;48.036;15.780;2022-09-09T22:55:20;126.73;;;121.93;;
13345;SDS011;6742;48.036;15.780;2022-09-09T22:57:47;137.03;;;131.80;;
13345;SDS011;6742;48.036;15.780;2022-09-09T23:00:16;146.00;;;140.53;;
13345;SDS011;6742;48.036;15.780;2022-09-09T23:02:43;115.63;;;111.03;;
13345;SDS011;6742;48.036;15.780;2022-09-09T23:05:14;131.63;;;126.53;;
13345;SDS011;6742;48.036;15.780;2022-09-09T23:07:41;124.23;;;119.43;;
13345;SDS011;6742;48.036;15.780;2022-09-09T23:10:09;145.70;;;140.07;;
13345;SDS011;6742;48.036;15.780;2022-09-09T23:12:36;150.93;;;145.20;;
13345;SDS011;6742;48.036;15.780;2022-09-09T23:15:05;131.80;;;126.63;;
13345;SDS011;6742;48.036;15.780;2022-09-09T23:17:39;147.67;;;142.03;;
13345;SDS011;6742;48.036;15.780;2022-09-09T23:20:06;143.83;;;138.33;;
13345;SDS011;6742;48.036;15.780;2022-09-09T23:22:37;145.57;;;139.97;;
13345;SDS011;6742;48.036;15.780;2022-09-09T23:25:05;164.07;;;157.93;;
13345;SDS011;6742;48.036;15.780;2022-09-09T23:27:32;154.40;;;148.60;;
13345;SDS011;6742;48.036;15.780;2022-09-09T23:30:03;160.53;;;154.27;;
13345;SDS011;6742;48.036;15.780;2022-09-09T23:32:31;150.17;;;144.47;;
13345;SDS011;6742;48.036;15.780;2022-09-09T23:34:59;147.57;;;141.73;;
13345;SDS011;6742;48.036;15.780;2022-09-09T23:37:26;148.37;;;142.63;;
13345;SDS011;6742;48.036;15.780;2022-09-09T23:39:55;161.70;;;155.43;;
13345;SDS011;6742;48.036;15.780;2022-09-09T23:42:22;175.43;;;168.80;;
13345;SDS011;6742;48.036;15.780;2022-09-09T23:44:50;159.53;;;153.60;;
13345;SDS011;6742;48.036;15.780;2022-09-09T23:47:18;154.37;;;148.47;;
13345;SDS011;6742;48.036;15.780;2022-09-09T23:49:44;155.03;;;149.10;;
13345;SDS011;6742;48.036;15.780;2022-09-09T23:52:17;169.13;;;162.73;;
13345;SDS011;6742;48.036;15.780;2022-09-09T23:54:44;177.53;;;170.90;;
13345;SDS011;6742;48.036;15.780;2022-09-09T23:57:11;140.10;;;134.77;;
13345;SDS011;6742;48.036;15.780;2022-09-09T23:59:41;144.73;;;139.20;;
